Time;durP1;ratioP1;P1;durP2;ratioP2;P2;SDS_P1;SDS_P2;PMS_P1;PMS_P2;Temp;Humidity;BMP_temperature;BMP_pressure;BME280_temperature;BME280_humidity;BME280_pressure;Samples;Min_cycle;Max_cycle;Signal;HPM_P1;HPM_P2
2023/12/01 00:00:25;;;;;;;27.20;16.07;;;;;;;3.21;100.00;63258.09;5051433;28;20215;-54
2023/12/01 00:02:50;;;;;;;26.53;14.83;;;;;;;3.41;100.00;63279.28;5052698;28;20219;-55
2023/12/01 00:05:16;;;;;;;23.17;14.80;;;;;;;3.12;100.00;63248.34;5052593;28;20293;-55
2023/12/01 00:07:41;;;;;;;25.17;14.63;;;;;;;3.29;100.00;63266.25;5052469;28;20683;-53
2023/12/01 00:10:11;;;;;;;25.53;14.60;;;;;;;3.24;100.00;63261.38;5052592;28;20203;-53
2023/12/01 00:12:37;;;;;;;25.53;14.87;;;;;;;3.00;100.00;63232.81;5052846;28;20232;-55
2023/12/01 00:15:03;;;;;;;31.27;15.47;;;;;;;3.16;100.00;63252.13;5052514;28;20210;-55
2023/12/01 00:17:29;;;;;;;23.07;13.50;;;;;;;2.96;100.00;63230.41;5052121;28;20221;-55
2023/12/01 00:19:54;;;;;;;29.80;15.37;;;;;;;2.99;100.00;63231.19;5053008;28;20202;-55
2023/12/01 00:22:20;;;;;;;25.73;15.97;;;;;;;3.08;100.00;63246.47;5052001;28;20244;-55
2023/12/01 00:24:45;;;;;;;27.17;15.07;;;;;;;2.99;100.00;63234.22;5051010;28;20233;-55
2023/12/01 00:27:11;;;;;;;28.17;14.43;;;;;;;3.22;100.00;63259.19;5052285;28;20320;-55
2023/12/01 00:29:36;;;;;;;27.87;15.13;;;;;;;2.98;100.00;63227.59;5034448;28;20275;-55
2023/12/01 00:32:02;;;;;;;27.50;15.03;;;;;;;2.97;100.00;63232.03;5052105;28;20274;-55
2023/12/01 00:34:28;;;;;;;28.23;15.37;;;;;;;3.07;100.00;63240.41;5052105;28;20609;-55
2023/12/01 00:36:55;;;;;;;24.30;14.97;;;;;;;2.83;100.00;63213.81;5052481;28;20217;-53
2023/12/01 00:39:21;;;;;;;30.60;16.37;;;;;;;2.97;100.00;63231.50;5051976;28;20221;-53
2023/12/01 00:41:46;;;;;;;23.70;14.60;;;;;;;3.04;100.00;63239.66;5052139;28;20620;-52
2023/12/01 00:44:12;;;;;;;24.60;15.00;;;;;;;3.19;100.00;63253.44;5052220;28;20243;-53
2023/12/01 00:46:37;;;;;;;24.93;15.17;;;;;;;3.12;100.00;63247.78;5051947;28;20653;-56
2023/12/01 00:49:03;;;;;;;28.03;13.83;;;;;;;3.00;100.00;63234.75;5034029;28;20672;-52
2023/12/01 00:51:29;;;;;;;28.30;15.50;;;;;;;3.04;100.00;63239.66;5052324;28;20539;-52
2023/12/01 00:53:55;;;;;;;26.40;15.17;;;;;;;3.23;100.00;63262.75;5050790;28;20198;-52
2023/12/01 00:56:20;;;;;;;26.20;14.73;;;;;;;3.22;100.00;63256.16;5033411;28;20214;-52
2023/12/01 00:58:46;;;;;;;21.00;14.37;;;;;;;3.29;100.00;63264.31;5051955;28;20247;-53
2023/12/01 01:01:12;;;;;;;26.53;16.07;;;;;;;3.18;100.00;63254.31;5052029;28;20279;-52
2023/12/01 01:03:38;;;;;;;26.17;15.10;;;;;;;3.20;100.00;63257.03;5051840;28;20231;-53
2023/12/01 01:06:03;;;;;;;26.73;15.03;;;;;;;3.16;100.00;63254.63;5051597;28;20288;-53
2023/12/01 01:08:30;;;;;;;25.17;14.57;;;;;;;3.37;100.00;63274.94;5051655;28;20679;-53
2023/12/01 01:10:56;;;;;;;25.20;14.30;;;;;;;3.31;100.00;63266.47;5051884;28;20202;-53
2023/12/01 01:13:21;;;;;;;25.17;15.00;;;;;;;3.25;100.00;63262.44;5051710;28;20217;-55
2023/12/01 01:15:48;;;;;;;28.97;15.37;;;;;;;3.47;100.00;63282.78;5050099;28;20581;-55
2023/12/01 01:18:15;;;;;;;23.53;14.47;;;;;;;2.96;100.00;63228.47;5051751;28;20219;-52
2023/12/01 01:20:40;;;;;;;27.00;15.47;;;;;;;3.20;100.00;63257.03;5033437;28;20276;-54
2023/12/01 01:23:06;;;;;;;27.67;15.27;;;;;;;3.37;100.00;63275.47;5051561;28;20687;-61
2023/12/01 01:25:32;;;;;;;26.20;14.47;;;;;;;3.34;100.00;63272.22;5051408;28;20178;-54
2023/12/01 01:27:57;;;;;;;25.20;15.30;;;;;;;3.17;100.00;63253.75;5033432;28;20311;-62
2023/12/01 01:30:23;;;;;;;25.67;15.97;;;;;;;3.11;100.00;63246.72;5051273;28;20691;-53
2023/12/01 01:32:48;;;;;;;23.47;14.90;;;;;;;3.12;100.00;63245.84;5033375;28;20223;-56
2023/12/01 01:35:15;;;;;;;25.60;14.67;;;;;;;3.34;100.00;63271.69;5051191;28;20258;-52
2023/12/01 01:37:41;;;;;;;22.70;14.03;;;;;;;3.46;100.00;63284.72;5033195;28;20343;-53
2023/12/01 01:40:11;;;;;;;25.00;15.03;;;;;;;3.06;100.00;63243.75;5051596;28;20327;-52
2023/12/01 01:42:37;;;;;;;31.73;15.40;;;;;;;3.33;100.00;63270.59;5051497;28;20217;-53
2023/12/01 01:45:03;;;;;;;26.17;15.43;;;;;;;3.24;100.00;63261.38;5049659;28;20236;-52
2023/12/01 01:47:29;;;;;;;25.37;15.90;;;;;;;3.27;100.00;63266.56;5051015;28;20292;-53
2023/12/01 01:49:55;;;;;;;24.63;14.97;;;;;;;3.08;100.00;63240.94;5033190;28;20657;-53
2023/12/01 01:52:21;;;;;;;25.73;14.37;;;;;;;3.18;100.00;63252.38;5051139;28;20221;-54
2023/12/01 01:54:47;;;;;;;28.03;14.90;;;;;;;3.10;100.00;63245.63;5051071;28;20169;-54
2023/12/01 01:57:12;;;;;;;25.80;13.63;;;;;;;3.27;100.00;63264.63;5050792;28;20315;-54
2023/12/01 01:59:38;;;;;;;27.67;15.50;;;;;;;3.14;100.00;63250.50;5050622;28;20221;-51
2023/12/01 02:02:03;;;;;;;26.33;14.30;;;;;;;3.13;100.00;63246.91;5050974;28;20217;-53
2023/12/01 02:04:29;;;;;;;25.83;15.07;;;;;;;3.02;100.00;63239.97;5051011;28;20206;-52
2023/12/01 02:06:55;;;;;;;27.27;15.60;;;;;;;3.01;100.00;63236.38;5051196;28;20278;-55
2023/12/01 02:09:21;;;;;;;24.93;13.80;;;;;;;3.19;100.00;63257.88;5049647;28;20212;-55
2023/12/01 02:11:46;;;;;;;26.17;14.40;;;;;;;3.17;100.00;63253.22;5050687;28;20214;-54
2023/12/01 02:14:13;;;;;;;25.67;15.20;;;;;;;3.00;100.00;63235.31;5050807;28;20205;-55
2023/12/01 02:16:45;;;;;;;28.13;14.40;;;;;;;3.21;100.00;63258.09;5051002;28;20214;-55
2023/12/01 02:19:12;;;;;;;23.63;14.70;;;;;;;2.95;100.00;63227.38;5051357;28;20216;-55
2023/12/01 02:21:42;;;;;;;26.77;15.03;;;;;;;3.18;100.00;63256.78;5050299;28;20212;-56
2023/12/01 02:24:09;;;;;;;25.93;14.13;;;;;;;3.08;100.00;63245.94;5050850;28;20254;-52
2023/12/01 02:26:34;;;;;;;26.80;14.77;;;;;;;2.95;100.00;63227.38;5050797;28;20229;-52
2023/12/01 02:29:07;;;;;;;25.17;13.93;;;;;;;3.29;100.00;63263.78;5049239;28;20207;-52
2023/12/01 02:31:32;;;;;;;26.17;13.60;;;;;;;3.10;100.00;63245.63;5050348;28;20209;-52
2023/12/01 02:33:59;;;;;;;25.10;13.40;;;;;;;3.19;100.00;63257.88;5050801;28;20197;-52
2023/12/01 02:36:24;;;;;;;26.13;14.33;;;;;;;3.08;100.00;63246.47;5050741;28;20204;-52
2023/12/01 02:38:50;;;;;;;22.53;13.83;;;;;;;3.32;100.00;63267.56;5050181;28;20651;-52
2023/12/01 02:41:17;;;;;;;21.67;13.47;;;;;;;3.29;100.00;63266.25;5032384;28;20202;-53
2023/12/01 02:43:43;;;;;;;21.13;12.10;;;;;;;3.51;100.00;63290.16;5050291;28;20202;-56
2023/12/01 02:46:11;;;;;;;22.53;13.20;;;;;;;3.52;100.00;63291.25;5050297;28;20208;-52
2023/12/01 02:48:36;;;;;;;21.70;12.33;;;;;;;3.72;100.00;63309.94;5032781;28;20241;-52
2023/12/01 02:51:02;;;;;;;21.87;12.10;;;;;;;3.59;100.00;63293.31;5050398;28;20649;-52
2023/12/01 02:53:27;;;;;;;18.47;11.20;;;;;;;3.87;100.00;63328.72;5050467;28;20605;-53
2023/12/01 02:55:53;;;;;;;20.33;11.37;;;;;;;3.63;100.00;63302.66;5050511;28;20628;-53
2023/12/01 02:58:19;;;;;;;16.97;10.70;;;;;;;3.73;100.00;63311.56;5050476;28;20635;-53
2023/12/01 03:00:44;;;;;;;23.13;12.43;;;;;;;4.01;100.00;63344.50;5050143;28;20660;-54
2023/12/01 03:03:10;;;;;;;17.50;10.67;;;;;;;3.86;100.00;63327.63;5050339;28;20217;-54
2023/12/01 03:05:36;;;;;;;17.87;9.87;;;;;;;4.07;100.00;63351.03;5048932;28;20218;-52
2023/12/01 03:08:01;;;;;;;17.23;10.03;;;;;;;4.23;100.00;63365.38;5050473;28;20255;-52
2023/12/01 03:10:27;;;;;;;16.73;9.60;;;;;;;4.11;100.00;63352.88;5050070;28;20233;-52
2023/12/01 03:12:52;;;;;;;17.87;10.70;;;;;;;4.08;100.00;63351.56;5032241;28;20216;-54
2023/12/01 03:15:19;;;;;;;17.60;10.07;;;;;;;3.97;100.00;63337.66;5050028;28;20193;-57
2023/12/01 03:17:45;;;;;;;15.90;9.57;;;;;;;4.14;100.00;63358.09;5049697;28;20718;-58
2023/12/01 03:20:11;;;;;;;13.77;7.80;;;;;;;4.23;100.00;63365.38;5050903;28;20233;-55
2023/12/01 03:22:41;;;;;;;15.33;9.37;;;;;;;4.20;100.00;63365.16;5053729;28;20295;-52
2023/12/01 03:25:09;;;;;;;13.00;8.33;;;;;;;4.43;100.00;63384.09;5053434;28;20206;-52
2023/12/01 03:27:41;;;;;;;11.97;8.03;;;;;;;4.42;100.00;63388.53;5019247;28;20225;-52
2023/12/01 03:30:13;;;;;;;12.67;8.43;;;;;;;4.48;100.00;63392.56;5053725;28;20208;-53
2023/12/01 03:32:59;;;;;;;15.93;8.53;;;;;;;4.67;100.00;63412.69;5053009;28;20213;-55
2023/12/01 03:35:25;;;;;;;11.27;7.13;;;;;;;4.79;100.00;63428.78;5052688;28;20270;-55
2023/12/01 03:37:55;;;;;;;10.47;6.40;;;;;;;4.79;100.00;63428.78;5071188;22;20238;-54
2023/12/01 03:40:21;;;;;;;10.77;7.10;;;;;;;5.01;100.00;63452.72;5072215;28;20211;-54
2023/12/01 03:42:48;;;;;;;12.10;6.60;;;;;;;5.13;100.00;63464.69;5042095;28;20228;-55
2023/12/01 03:45:14;;;;;;;10.93;7.53;;;;;;;5.17;100.00;63469.06;5053040;28;20206;-55
2023/12/01 03:47:43;;;;;;;10.03;6.60;;;;;;;5.13;100.00;63462.72;5053406;28;20212;-54
2023/12/01 03:50:11;;;;;;;12.13;6.37;;;;;;;5.02;100.00;63453.28;5053416;28;20212;-55
2023/12/01 03:52:47;;;;;;;10.57;6.43;;;;;;;5.19;100.00;63471.22;5052872;28;20213;-55
2023/12/01 03:55:14;;;;;;;10.27;6.33;;;;;;;5.16;100.00;63468.50;5052931;28;20270;-52
2023/12/01 03:57:40;;;;;;;11.57;6.37;;;;;;;5.09;100.00;63461.44;5052934;28;20248;-53
2023/12/01 04:00:08;;;;;;;9.00;6.07;;;;;;;5.14;100.00;63466.31;5052686;28;20208;-52
2023/12/01 04:02:41;;;;;;;8.60;4.50;;;;;;;5.26;100.00;63478.84;5052533;28;20698;-53
2023/12/01 04:05:07;;;;;;;6.97;4.70;;;;;;;5.40;100.00;63492.13;5052751;28;20205;-53
2023/12/01 04:07:38;;;;;;;9.20;4.70;;;;;;;5.50;100.00;63505.53;5052781;28;20224;-52
2023/12/01 04:10:10;;;;;;;7.87;5.30;;;;;;;5.57;100.00;63510.09;5052736;28;20605;-54
2023/12/01 04:12:39;;;;;;;7.20;5.03;;;;;;;5.54;100.00;63509.31;5052676;28;20212;-56
2023/12/01 04:15:05;;;;;;;11.67;4.90;;;;;;;5.72;100.00;63528.94;5052616;28;20210;-55
2023/12/01 04:17:31;;;;;;;7.73;5.33;;;;;;;5.59;100.00;63512.84;5034460;28;20239;-55
2023/12/01 04:19:56;;;;;;;8.70;5.43;;;;;;;5.64;100.00;63517.72;5034513;28;20219;-55
2023/12/01 04:22:22;;;;;;;9.27;5.03;;;;;;;5.88;100.00;63544.41;5052427;28;20627;-55
2023/12/01 04:24:48;;;;;;;6.90;4.67;;;;;;;5.82;100.00;63537.31;5052928;28;20225;-53
2023/12/01 04:27:14;;;;;;;10.50;6.13;;;;;;;5.77;100.00;63532.44;5052232;28;20223;-55
2023/12/01 04:29:39;;;;;;;10.40;5.87;;;;;;;5.93;100.00;63549.88;5052305;28;20588;-55
2023/12/01 04:32:05;;;;;;;9.43;4.47;;;;;;;5.67;100.00;63523.50;5033311;28;20700;-56
2023/12/01 04:34:31;;;;;;;9.00;5.07;;;;;;;5.85;100.00;63541.16;5052149;28;20197;-54
2023/12/01 04:36:57;;;;;;;11.07;5.77;;;;;;;5.81;100.00;63536.78;5034656;28;20213;-56
2023/12/01 04:39:23;;;;;;;9.13;5.27;;;;;;;5.94;100.00;63552.91;5051945;28;20248;-55
2023/12/01 04:41:50;;;;;;;6.30;4.73;;;;;;;5.86;100.00;63541.69;5034336;28;20232;-56
2023/12/01 04:44:16;;;;;;;11.00;5.50;;;;;;;5.82;100.00;63539.81;5051991;28;20235;-55
2023/12/01 04:46:42;;;;;;;9.80;4.90;;;;;;;5.81;100.00;63536.25;5050567;28;20655;-55
2023/12/01 04:49:08;;;;;;;6.67;4.70;;;;;;;5.81;100.00;63536.25;5052059;28;20185;-55
2023/12/01 04:51:35;;;;;;;10.30;5.87;;;;;;;5.74;100.00;63528.59;5051961;28;20229;-56
2023/12/01 04:54:06;;;;;;;10.90;6.03;;;;;;;5.75;100.00;63529.69;5051820;28;20209;-55
2023/12/01 04:56:33;;;;;;;11.27;6.07;;;;;;;5.87;100.00;63543.34;5051759;28;20291;-57
2023/12/01 04:58:58;;;;;;;9.60;5.50;;;;;;;5.49;100.00;63504.44;5052002;28;20221;-60
2023/12/01 05:01:24;;;;;;;7.47;4.63;;;;;;;5.70;100.00;63526.75;5051786;28;20204;-59
2023/12/01 05:03:49;;;;;;;7.83;4.93;;;;;;;5.79;100.00;63536.56;5051732;28;20295;-55
2023/12/01 05:06:15;;;;;;;9.30;4.90;;;;;;;5.88;100.00;63543.88;5051677;28;20261;-55
2023/12/01 05:08:40;;;;;;;5.67;4.20;;;;;;;6.01;100.00;63558.03;5033674;28;20213;-55
2023/12/01 05:11:06;;;;;;;5.83;4.47;;;;;;;5.97;100.00;63553.69;5033955;28;20207;-55
2023/12/01 05:13:32;;;;;;;5.60;4.00;;;;;;;6.19;100.00;63577.66;5033558;28;20213;-54
2023/12/01 05:15:57;;;;;;;6.23;4.27;;;;;;;6.25;100.00;63586.69;5051349;28;20209;-54
2023/12/01 05:18:23;;;;;;;7.17;3.77;;;;;;;6.45;100.00;63606.00;5052021;28;20304;-56
2023/12/01 05:20:49;;;;;;;5.23;3.83;;;;;;;6.33;100.00;63592.91;5051392;28;20741;-56
2023/12/01 05:23:15;;;;;;;6.03;3.77;;;;;;;6.48;100.00;63606.75;5051617;28;20220;-56
2023/12/01 05:25:46;;;;;;;7.97;4.60;;;;;;;6.72;100.00;63637.94;5051582;28;20263;-55
2023/12/01 05:28:11;;;;;;;5.10;3.60;;;;;;;6.64;100.00;63624.22;5051644;28;20691;-53
2023/12/01 05:30:40;;;;;;;6.30;3.63;;;;;;;6.77;100.00;63640.31;5051327;28;20304;-53
2023/12/01 05:33:09;;;;;;;6.27;3.70;;;;;;;6.74;100.00;63637.59;5033401;28;20205;-55
2023/12/01 05:35:37;;;;;;;7.80;3.60;;;;;;;6.62;100.00;63626.47;5033996;28;20198;-53
2023/12/01 05:38:06;;;;;;;5.27;3.77;;;;;;;6.63;100.00;63625.59;5051726;28;20631;-53
2023/12/01 05:40:35;;;;;;;7.37;4.13;;;;;;;6.75;100.00;63638.69;5051224;28;20204;-54
2023/12/01 05:43:02;;;;;;;9.27;4.60;;;;;;;6.62;100.00;63624.53;5051320;28;20205;-53
2023/12/01 05:45:32;;;;;;;4.30;3.13;;;;;;;6.78;100.00;63643.94;5051456;28;20806;-53
2023/12/01 05:47:58;;;;;;;5.17;3.97;;;;;;;6.89;100.00;63653.41;5017196;28;20363;-52
2023/12/01 05:50:28;;;;;;;6.67;3.30;;;;;;;7.36;100.00;63704.13;5051051;28;20702;-52
2023/12/01 05:52:56;;;;;;;6.20;3.27;;;;;;;7.38;100.00;63703.81;5051199;28;20294;-52
2023/12/01 05:55:29;;;;;;;6.00;3.60;;;;;;;7.31;100.00;63698.69;5033205;28;20205;-54
2023/12/01 05:58:01;;;;;;;4.97;3.60;;;;;;;7.32;100.00;63697.81;5032953;28;20218;-53
2023/12/01 06:00:31;;;;;;;7.60;3.93;;;;;;;7.22;100.00;63688.84;5050941;28;20212;-54
2023/12/01 06:03:06;;;;;;;9.00;4.20;;;;;;;7.08;100.00;63678.59;5051245;28;20209;-55
2023/12/01 06:05:32;;;;;;;8.87;4.20;;;;;;;7.35;100.00;63703.56;5051030;28;20205;-55
2023/12/01 06:07:59;;;;;;;6.97;3.37;;;;;;;7.21;100.00;63685.25;5051597;28;20229;-53
2023/12/01 06:10:26;;;;;;;7.73;3.73;;;;;;;7.34;100.00;63704.44;5050947;28;20225;-54
2023/12/01 06:12:52;;;;;;;5.60;3.90;;;;;;;7.37;100.00;63705.22;5050715;28;20765;-53
2023/12/01 06:15:19;;;;;;;6.30;3.73;;;;;;;7.40;100.00;63709.03;5051001;28;20199;-53
2023/12/01 06:17:46;;;;;;;5.13;3.30;;;;;;;7.59;100.00;63732.25;5050902;28;20298;-53
2023/12/01 06:20:17;;;;;;;6.73;3.23;;;;;;;7.68;100.00;63736.53;5050628;28;20201;-52
2023/12/01 06:23:05;;;;;;;5.47;2.90;;;;;;;7.42;100.00;63708.16;5032805;28;20323;-54
2023/12/01 06:25:32;;;;;;;5.13;3.57;;;;;;;7.66;100.00;63736.84;5050664;28;20659;-55
2023/12/01 06:27:59;;;;;;;5.93;3.27;;;;;;;7.62;100.00;63733.03;5069489;22;20229;-55
2023/12/01 06:30:26;;;;;;;10.13;4.13;;;;;;;7.45;100.00;63711.97;5052545;28;20736;-56
2023/12/01 06:32:52;;;;;;;4.50;3.50;;;;;;;7.56;100.00;63726.50;5056993;28;20223;-60
2023/12/01 06:35:20;;;;;;;5.07;3.70;;;;;;;7.71;100.00;63744.28;5030877;28;20722;-54
2023/12/01 06:37:46;;;;;;;6.87;3.67;;;;;;;7.75;100.00;63748.66;5049171;28;20245;-52
2023/12/01 06:40:15;;;;;;;6.60;4.00;;;;;;;7.91;100.00;63766.09;5032618;28;20663;-56
2023/12/01 06:43:10;;;;;;;5.63;3.97;;;;;;;7.64;100.00;63735.22;5050459;28;20698;-55
2023/12/01 06:45:37;;;;;;;9.33;4.87;;;;;;;7.74;100.00;63745.59;5048171;28;20252;-54
2023/12/01 06:48:03;;;;;;;7.10;4.33;;;;;;;7.78;100.00;63751.94;5050689;28;20220;-56
2023/12/01 06:50:29;;;;;;;4.87;3.70;;;;;;;7.84;100.00;63755.97;5050467;28;20255;-57
2023/12/01 06:52:59;;;;;;;8.93;3.50;;;;;;;7.90;100.00;63765.03;5050180;28;20221;-56
2023/12/01 06:55:24;;;;;;;9.13;3.80;;;;;;;7.82;100.00;63756.81;5051880;28;20671;-53
2023/12/01 06:57:50;;;;;;;5.03;3.87;;;;;;;8.03;100.00;63779.75;5053639;28;20214;-55
2023/12/01 07:00:29;;;;;;;5.13;3.40;;;;;;;7.86;100.00;63758.16;5053778;28;20714;-56
2023/12/01 07:03:06;;;;;;;4.77;3.67;;;;;;;8.12;100.00;63787.06;5053891;28;20206;-55
2023/12/01 07:05:35;;;;;;;9.77;4.00;;;;;;;7.96;100.00;63769.59;5053802;28;20209;-55
2023/12/01 07:08:03;;;;;;;9.97;6.07;;;;;;;7.91;100.00;63763.59;5053847;28;20205;-59
2023/12/01 07:10:32;;;;;;;6.50;4.33;;;;;;;7.95;100.00;63767.97;5053575;28;20229;-55
2023/12/01 07:12:59;;;;;;;11.43;5.10;;;;;;;7.72;100.00;63740.91;5052012;28;20703;-55
2023/12/01 07:15:25;;;;;;;11.43;5.47;;;;;;;7.64;100.00;63735.22;5053330;28;20217;-55
2023/12/01 07:17:53;;;;;;;8.83;5.50;;;;;;;7.81;100.00;63755.75;5053575;28;20217;-56
2023/12/01 07:20:19;;;;;;;10.70;5.80;;;;;;;7.47;100.00;63718.63;5053174;28;20205;-56
2023/12/01 07:22:46;;;;;;;9.77;6.07;;;;;;;7.76;100.00;63749.75;5053559;28;20266;-60
2023/12/01 07:25:21;;;;;;;9.63;5.80;;;;;;;7.68;100.00;63739.03;5053340;28;20198;-56
2023/12/01 07:27:59;;;;;;;10.00;5.00;;;;;;;7.79;100.00;63750.50;5053070;28;20657;-56
2023/12/01 07:30:27;;;;;;;8.10;5.80;;;;;;;7.45;100.00;63713.94;5053119;28;20201;-56
2023/12/01 07:32:53;;;;;;;12.47;6.37;;;;;;;7.72;100.00;63745.34;5053239;28;20652;-54
2023/12/01 07:35:19;;;;;;;11.30;6.63;;;;;;;7.67;100.00;63737.97;5053486;28;20205;-56
2023/12/01 07:37:46;;;;;;;14.63;6.63;;;;;;;7.57;100.00;63724.53;5053049;28;20759;-55
2023/12/01 07:40:13;;;;;;;13.83;7.43;;;;;;;7.50;100.00;63719.94;5053200;28;20215;-55
2023/12/01 07:42:46;;;;;;;10.23;7.10;;;;;;;7.28;100.00;63695.94;5051912;28;20669;-52
2023/12/01 07:45:17;;;;;;;12.30;6.83;;;;;;;7.37;100.00;63705.22;5053577;28;20679;-54
2023/12/01 07:47:46;;;;;;;11.30;7.77;;;;;;;7.21;100.00;63688.31;5035673;28;20318;-56
2023/12/01 07:50:14;;;;;;;14.07;8.33;;;;;;;7.06;100.00;63674.47;5052882;28;20198;-55
2023/12/01 07:52:41;;;;;;;12.00;6.90;;;;;;;7.38;100.00;63706.84;5053082;28;20241;-55
2023/12/01 07:55:07;;;;;;;12.23;7.33;;;;;;;7.33;100.00;63698.88;5053030;28;20256;-53
2023/12/01 07:57:32;;;;;;;11.17;7.03;;;;;;;6.95;100.00;63659.41;5052961;28;20767;-52
2023/12/01 07:59:58;;;;;;;14.83;7.50;;;;;;;6.98;100.00;63665.72;5052686;28;20259;-53
2023/12/01 08:02:24;;;;;;;12.37;6.17;;;;;;;6.77;100.00;63640.31;5034960;28;20210;-53
2023/12/01 08:04:49;;;;;;;8.10;4.80;;;;;;;7.11;100.00;63674.88;5052812;28;20566;-53
2023/12/01 08:07:15;;;;;;;9.50;5.70;;;;;;;7.12;100.00;63675.44;5051455;28;20288;-53
2023/12/01 08:09:40;;;;;;;6.97;4.17;;;;;;;7.07;100.00;63675.53;5052627;28;20201;-53
2023/12/01 08:12:13;;;;;;;4.47;3.73;;;;;;;7.45;100.00;63711.44;5052729;28;20209;-55
2023/12/01 08:14:39;;;;;;;7.00;4.10;;;;;;;7.64;100.00;63735.22;5034860;28;20201;-56
2023/12/01 08:17:05;;;;;;;5.93;4.00;;;;;;;7.86;100.00;63758.16;5052214;28;20725;-55
2023/12/01 08:19:32;;;;;;;8.67;3.83;;;;;;;7.87;100.00;63759.22;5052202;28;20221;-55
2023/12/01 08:21:58;;;;;;;7.67;4.07;;;;;;;8.02;100.00;63773.09;5035064;28;20755;-54
2023/12/01 08:24:25;;;;;;;7.83;3.93;;;;;;;8.11;100.00;63783.47;5034447;28;20201;-53
2023/12/01 08:26:51;;;;;;;7.77;3.70;;;;;;;8.04;100.00;63778.31;5052264;28;20304;-52
2023/12/01 08:29:17;;;;;;;4.43;3.13;;;;;;;8.34;100.00;63811.09;5034611;28;20600;-55
2023/12/01 08:31:45;;;;;;;5.53;3.83;;;;;;;8.34;100.00;63808.59;5052488;28;20671;-55
2023/12/01 08:34:10;;;;;;;5.07;3.77;;;;;;;8.40;100.00;63815.16;5034484;28;20197;-54
2023/12/01 08:36:36;;;;;;;5.10;3.70;;;;;;;8.27;100.00;63805.97;5052091;28;20216;-56
2023/12/01 08:39:02;;;;;;;6.27;5.10;;;;;;;8.23;100.00;63799.09;5052019;28;20217;-55
2023/12/01 08:41:28;;;;;;;10.60;5.13;;;;;;;8.13;100.00;63787.63;5052483;28;20213;-55
2023/12/01 08:43:53;;;;;;;9.10;5.83;;;;;;;7.91;100.00;63763.59;5034303;28;20251;-55
2023/12/01 08:46:19;;;;;;;9.20;5.87;;;;;;;7.87;100.00;63759.22;5051906;28;20292;-55
2023/12/01 08:48:44;;;;;;;6.17;4.33;;;;;;;8.19;100.00;63791.66;5051698;28;20213;-55
2023/12/01 08:51:11;;;;;;;6.00;3.87;;;;;;;8.16;100.00;63788.91;5051961;28;20186;-55
2023/12/01 08:53:37;;;;;;;7.97;4.40;;;;;;;8.45;100.00;63825.09;5051671;28;20256;-55
2023/12/01 08:56:03;;;;;;;6.13;3.67;;;;;;;8.52;100.00;63829.69;5051979;28;20335;-56
2023/12/01 08:58:28;;;;;;;8.27;5.03;;;;;;;8.53;100.00;63828.81;5051621;28;20692;-55
2023/12/01 09:00:54;;;;;;;6.63;4.10;;;;;;;8.95;100.00;63876.66;5051800;28;20685;-54
2023/12/01 09:03:20;;;;;;;4.97;3.67;;;;;;;9.18;100.00;63902.34;5052112;28;20221;-58
2023/12/01 09:05:45;;;;;;;5.53;3.73;;;;;;;9.44;100.00;63927.69;5051831;28;20209;-54
2023/12/01 09:08:12;;;;;;;7.30;3.80;;;;;;;9.79;100.00;63967.94;5033766;28;20213;-58
2023/12/01 09:10:38;;;;;;;8.93;4.33;;;;;;;9.86;100.00;63976.16;5052289;28;20202;-55
2023/12/01 09:13:04;;;;;;;6.63;4.33;;;;;;;9.91;100.00;63979.09;5052037;28;20221;-52
2023/12/01 09:15:29;;;;;;;4.70;3.07;;;;;;;10.07;100.00;63996.06;5033949;28;20281;-54
2023/12/01 09:17:55;;;;;;;4.53;2.70;;;;;;;10.31;100.00;64024.31;5051223;28;20695;-58
2023/12/01 09:20:21;;;;;;;4.33;2.50;;;;;;;10.44;100.00;64038.53;5051695;28;20178;-53
2023/12/01 09:22:47;;;;;;;11.20;5.77;;;;;;;10.35;100.00;64029.22;5051796;28;20589;-54
2023/12/01 09:25:12;;;;;;;7.30;3.20;;;;;;;10.50;100.00;64045.09;5051655;28;20639;-53
2023/12/01 09:27:41;;;;;;;5.43;2.33;;;;;;;10.68;100.00;64064.81;5051433;28;20216;-54
2023/12/01 09:30:13;;;;;;;7.20;2.70;;;;;;;10.75;100.00;64069.94;5051220;28;20186;-54
2023/12/01 09:32:41;;;;;;;6.77;3.90;;;;;;;10.64;100.00;64058.47;5049886;28;20217;-52
2023/12/01 09:35:07;;;;;;;8.63;3.20;;;;;;;10.55;100.00;64050.56;5033468;28;20212;-56
2023/12/01 09:37:33;;;;;;;6.80;3.57;;;;;;;10.79;100.00;64077.38;5051399;28;20213;-55
2023/12/01 09:39:59;;;;;;;22.90;11.30;;;;;;;10.56;100.00;64049.16;5051763;28;20213;-55
2023/12/01 09:42:24;;;;;;;19.97;10.97;;;;;;;10.64;100.00;64058.47;5051463;28;20590;-55
2023/12/01 09:44:53;;;;;;;6.73;3.87;;;;;;;10.89;100.00;64087.78;5051143;28;20686;-55
2023/12/01 09:47:20;;;;;;;7.87;4.07;;;;;;;10.84;100.00;64082.31;5051019;28;20249;-56
2023/12/01 09:49:49;;;;;;;8.23;3.90;;;;;;;10.84;100.00;64080.34;5051268;28;20694;-56
2023/12/01 09:52:15;;;;;;;5.97;3.90;;;;;;;10.98;100.00;64097.66;5050999;28;20225;-58
2023/12/01 09:54:41;;;;;;;6.83;4.67;;;;;;;10.67;100.00;64063.69;5050975;28;20209;-55
2023/12/01 09:57:07;;;;;;;6.57;3.93;;;;;;;10.65;100.00;64059.53;5051191;28;20623;-55
2023/12/01 09:59:37;;;;;;;5.23;3.87;;;;;;;10.86;100.00;64084.50;5051193;28;20228;-55
2023/12/01 10:02:03;;;;;;;8.27;4.60;;;;;;;10.83;100.00;64079.25;5033054;28;20251;-57
2023/12/01 10:04:30;;;;;;;6.43;3.87;;;;;;;10.90;100.00;64088.88;5050828;28;20210;-54
2023/12/01 10:07:00;;;;;;;7.13;4.63;;;;;;;10.85;100.00;64080.88;5050898;28;20278;-55
2023/12/01 10:09:33;;;;;;;6.70;4.00;;;;;;;10.67;100.00;64063.69;5049701;28;20201;-56
2023/12/01 10:12:12;;;;;;;7.33;4.30;;;;;;;10.88;100.00;64084.19;5051149;28;20286;-59
2023/12/01 10:14:41;;;;;;;4.53;3.17;;;;;;;10.94;100.00;64093.25;5050790;28;20631;-55
2023/12/01 10:17:07;;;;;;;4.97;3.30;;;;;;;10.92;100.00;64091.63;5032770;28;20219;-55
2023/12/01 10:19:43;;;;;;;4.23;2.60;;;;;;;11.17;100.00;64115.91;5051002;28;20218;-56
2023/12/01 10:22:11;;;;;;;5.73;3.40;;;;;;;11.01;100.00;64097.88;5032818;28;20232;-56
2023/12/01 10:24:37;;;;;;;4.23;3.17;;;;;;;11.29;100.00;64129.06;5050594;28;20201;-54
2023/12/01 10:27:05;;;;;;;5.70;3.10;;;;;;;11.58;100.00;64162.81;5050501;28;20209;-52
2023/12/01 10:29:32;;;;;;;4.53;2.50;;;;;;;11.82;100.00;64189.69;5050655;28;20201;-53
2023/12/01 10:32:12;;;;;;;4.37;2.73;;;;;;;11.98;100.00;64206.13;5054706;28;20213;-53
2023/12/01 10:34:38;;;;;;;3.50;2.40;;;;;;;12.03;100.00;64211.59;5036365;28;20181;-57
2023/12/01 10:37:04;;;;;;;5.73;2.90;;;;;;;12.12;100.00;64221.47;5054106;28;20236;-55
2023/12/01 10:39:30;;;;;;;5.60;3.50;;;;;;;12.50;100.00;64260.63;5053898;28;20212;-55
2023/12/01 10:41:57;;;;;;;6.00;3.80;;;;;;;12.92;100.00;64308.66;5054056;28;20300;-54
2023/12/01 10:44:25;;;;;;;7.80;3.77;;;;;;;13.05;100.00;64320.44;5054072;28;20204;-53
2023/12/01 10:46:52;;;;;;;5.37;3.50;;;;;;;13.75;98.21;64397.25;5054016;28;20265;-55
2023/12/01 10:49:18;;;;;;;4.80;3.53;;;;;;;13.89;95.99;64412.06;5036247;28;20213;-55
2023/12/01 10:51:45;;;;;;;4.87;3.43;;;;;;;14.60;91.54;64492.63;5056809;22;20316;-55
2023/12/01 10:54:12;;;;;;;5.13;3.53;;;;;;;15.54;87.84;64595.44;5033790;28;20202;-55
2023/12/01 10:56:55;;;;;;;3.78;3.25;;;;;;;15.75;85.57;64613.47;5032582;28;20305;-55
2023/12/01 10:59:26;;;;;;;5.80;3.80;;;;;;;15.88;82.87;64629.75;5033738;28;20221;-57
2023/12/01 11:01:53;;;;;;;8.48;4.43;;;;;;;15.87;83.66;64628.66;5032718;28;20217;-52
2023/12/01 11:04:26;;;;;;;7.63;3.97;;;;;;;16.48;81.27;64695.25;5034122;28;20194;-53
2023/12/01 11:07:27;;;;;;;7.60;5.00;;;;;;;16.77;78.66;64730.28;5033681;28;20233;-53
2023/12/01 11:10:14;;;;;;;8.95;4.72;;;;;;;16.60;76.29;64711.03;5033781;28;20637;-52
2023/12/01 11:13:18;;;;;;;6.90;4.78;;;;;;;16.56;78.48;64702.06;5032333;28;20222;-53
2023/12/01 11:15:48;;;;;;;8.35;4.80;;;;;;;16.77;77.54;64727.75;5032741;28;20214;-53
2023/12/01 11:18:14;;;;;;;8.00;5.32;;;;;;;16.72;78.80;64726.78;5032670;28;20218;-53
2023/12/01 11:20:44;;;;;;;8.80;5.20;;;;;;;16.96;78.10;64747.56;5033405;28;20202;-53
2023/12/01 11:23:10;;;;;;;9.35;5.80;;;;;;;16.81;77.93;64731.06;5033072;28;20241;-53
2023/12/01 11:25:46;;;;;;;9.52;5.82;;;;;;;16.56;79.27;64704.06;5033492;28;20233;-53
2023/12/01 11:28:42;;;;;;;10.40;5.65;;;;;;;16.48;77.93;64692.72;5030923;28;20209;-53